Time;durP1;ratioP1;P1;durP2;ratioP2;P2;SDS_P1;SDS_P2;PMS_P1;PMS_P2;Temp;Humidity;BMP_temperature;BMP_pressure;BME280_temperature;BME280_humidity;BME280_pressure;Samples;Min_cycle;Max_cycle;Signal;HPM_P1;HPM_P2
2023/08/14 00:00:19;;;;;;;3.97;1.60;;;;;;;26.13;50.76;101650.59;5087673;28;20530;-71
2023/08/14 00:02:44;;;;;;;7.28;1.95;;;;;;;25.53;52.72;101653.31;5088351;28;20036;-71
2023/08/14 00:05:10;;;;;;;4.60;1.52;;;;;;;25.89;51.89;101654.69;5088081;28;20055;-73
2023/08/14 00:07:35;;;;;;;4.13;1.77;;;;;;;25.61;52.71;101649.28;5084885;28;20097;-73
2023/08/14 00:10:01;;;;;;;3.08;1.70;;;;;;;25.64;52.62;101649.13;5086924;28;20020;-73
2023/08/14 00:12:26;;;;;;;6.03;2.25;;;;;;;25.99;51.64;101643.41;5088151;28;20114;-73
2023/08/14 00:14:51;;;;;;;3.15;1.95;;;;;;;25.89;51.99;101649.31;5088789;28;20035;-73
2023/08/14 00:17:17;;;;;;;5.55;1.95;;;;;;;25.38;53.76;101643.53;5089452;28;20469;-73
2023/08/14 00:19:42;;;;;;;6.13;2.53;;;;;;;25.59;52.71;101652.06;5088151;28;20031;-73
2023/08/14 00:22:08;;;;;;;6.43;2.05;;;;;;;25.53;53.23;101653.31;5087647;28;20122;-73
2023/08/14 00:24:35;;;;;;;5.47;2.28;;;;;;;25.43;53.38;101652.16;5088966;28;20130;-71
2023/08/14 00:27:00;;;;;;;7.30;2.40;;;;;;;25.40;53.59;101645.16;5089631;28;20039;-74
2023/08/14 00:29:26;;;;;;;3.28;2.00;;;;;;;25.49;52.95;101641.06;5091487;28;20032;-73
2023/08/14 00:31:51;;;;;;;3.25;2.22;;;;;;;25.63;53.02;101626.00;5091688;28;20024;-73
2023/08/14 00:34:17;;;;;;;4.88;2.30;;;;;;;25.73;52.70;101627.13;5091993;28;20032;-73
2023/08/14 00:36:42;;;;;;;3.97;2.25;;;;;;;25.70;52.45;101635.34;5091491;28;20024;-73
2023/08/14 00:39:08;;;;;;;4.88;2.75;;;;;;;25.68;52.69;101632.78;5090317;28;20187;-74
2023/08/14 00:41:33;;;;;;;5.28;2.50;;;;;;;25.93;51.64;101622.38;5092312;28;20020;-73
2023/08/14 00:43:59;;;;;;;4.78;2.45;;;;;;;25.24;53.67;101628.28;5092243;28;20560;-73
2023/08/14 00:46:25;;;;;;;6.97;2.55;;;;;;;25.23;53.97;101624.72;5093138;28;20036;-73
2023/08/14 00:48:51;;;;;;;5.47;2.47;;;;;;;25.59;52.79;101624.44;5089177;28;20046;-73
2023/08/14 00:51:20;;;;;;;3.25;1.98;;;;;;;25.65;52.65;101626.75;5092190;28;20020;-73
2023/08/14 00:53:46;;;;;;;5.53;2.60;;;;;;;25.52;53.15;101619.47;5090621;28;20085;-73
2023/08/14 00:56:12;;;;;;;6.40;2.58;;;;;;;25.50;53.19;101621.38;5091666;28;20024;-73
2023/08/14 00:58:37;;;;;;;6.35;2.83;;;;;;;25.70;52.34;101621.97;5072583;28;20103;-73
2023/08/14 01:01:03;;;;;;;5.43;2.72;;;;;;;25.08;53.72;101624.78;5055423;28;20032;-73
2023/08/14 01:03:29;;;;;;;5.80;2.70;;;;;;;25.70;52.19;101616.63;5042316;28;20043;-73
2023/08/14 01:05:55;;;;;;;5.13;2.97;;;;;;;25.30;53.62;101629.72;5054879;28;20349;-71
2023/08/14 01:08:20;;;;;;;4.93;2.72;;;;;;;25.46;53.21;101619.84;5072768;28;20039;-73
2023/08/14 01:11:00;;;;;;;7.03;3.35;;;;;;;24.92;54.94;101624.81;5053353;28;20416;-73
2023/08/14 01:13:36;;;;;;;5.28;3.50;;;;;;;25.05;54.64;101625.81;5056149;28;20063;-73
2023/08/14 01:16:07;;;;;;;8.02;4.15;;;;;;;24.89;55.67;101618.72;5054256;28;20128;-74
2023/08/14 01:18:35;;;;;;;9.23;3.50;;;;;;;24.46;56.63;101618.44;5071278;28;20062;-73
2023/08/14 01:21:10;;;;;;;10.50;3.55;;;;;;;25.34;53.46;101626.78;5054497;28;20036;-73
2023/08/14 01:24:14;;;;;;;6.80;3.28;;;;;;;24.93;55.34;101615.84;5053962;28;20032;-73
2023/08/14 01:26:40;;;;;;;11.50;3.80;;;;;;;25.03;55.02;101606.31;5020209;28;20040;-73
2023/08/14 01:29:06;;;;;;;8.43;3.72;;;;;;;25.10;54.79;101604.16;5068943;28;20036;-73
2023/08/14 01:31:31;;;;;;;9.90;3.72;;;;;;;25.18;54.82;101604.56;5052401;28;20372;-73
2023/08/14 01:33:57;;;;;;;8.55;4.25;;;;;;;25.14;54.73;101608.38;5051707;28;20055;-73
2023/08/14 01:36:33;;;;;;;7.78;4.20;;;;;;;25.08;54.37;101593.53;5070947;28;20035;-74
2023/08/14 01:39:06;;;;;;;9.13;3.97;;;;;;;25.26;54.34;101585.38;5033188;28;20032;-74
2023/08/14 01:42:02;;;;;;;8.05;4.07;;;;;;;25.35;54.25;101583.03;5052672;28;20025;-73
2023/08/14 01:44:31;;;;;;;7.25;3.55;;;;;;;25.35;53.29;101590.22;5053128;28;20040;-73
2023/08/14 01:46:58;;;;;;;5.32;3.30;;;;;;;25.37;53.76;101583.78;5052976;28;20020;-74
2023/08/14 01:49:28;;;;;;;9.65;4.15;;;;;;;25.20;54.37;101587.47;5070295;28;20020;-74
2023/08/14 01:51:55;;;;;;;7.78;3.88;;;;;;;25.12;53.90;101576.38;5052733;28;20477;-73
2023/08/14 01:54:20;;;;;;;13.15;4.07;;;;;;;25.33;53.86;101571.56;5053889;28;20112;-73
2023/08/14 01:56:45;;;;;;;9.38;3.78;;;;;;;25.23;54.34;101575.72;5052803;28;20471;-73
2023/08/14 01:59:11;;;;;;;6.60;3.97;;;;;;;25.38;53.58;101568.63;5051809;28;20138;-74
2023/08/14 02:01:36;;;;;;;11.52;3.60;;;;;;;25.03;54.66;101569.75;5070920;28;20029;-73
2023/08/14 02:04:02;;;;;;;10.15;3.40;;;;;;;24.94;54.84;101558.75;5071304;28;20025;-73
2023/08/14 02:06:27;;;;;;;9.18;3.90;;;;;;;24.76;55.39;101561.56;5053513;28;20063;-73
2023/08/14 02:08:53;;;;;;;12.65;4.40;;;;;;;25.00;54.37;101558.38;5068634;28;20056;-73
2023/08/14 02:11:18;;;;;;;7.30;3.47;;;;;;;24.97;54.31;101558.56;5052876;28;20024;-74
2023/08/14 02:13:44;;;;;;;7.35;3.50;;;;;;;25.15;53.94;101560.13;5051119;28;20087;-73
2023/08/14 02:16:11;;;;;;;11.27;3.38;;;;;;;25.12;54.00;101557.66;5071290;28;20051;-74
2023/08/14 02:18:36;;;;;;;7.38;3.30;;;;;;;25.08;53.82;101545.41;5053399;28;20040;-74
2023/08/14 02:21:02;;;;;;;6.50;3.25;;;;;;;25.16;53.71;101553.84;5053091;28;20515;-74
2023/08/14 02:23:27;;;;;;;9.20;3.45;;;;;;;25.14;53.31;101545.06;5051832;28;20077;-74
2023/08/14 02:25:54;;;;;;;11.02;3.67;;;;;;;25.16;53.22;101548.47;5069742;28;20074;-75
2023/08/14 02:28:20;;;;;;;7.05;3.53;;;;;;;25.18;53.23;101556.41;5069424;28;20476;-73
2023/08/14 02:30:45;;;;;;;7.35;3.10;;;;;;;25.18;53.10;101557.28;5053627;28;20031;-73
2023/08/14 02:33:12;;;;;;;7.05;3.63;;;;;;;25.17;53.00;101544.84;5070939;28;20028;-73
2023/08/14 02:35:37;;;;;;;9.68;4.00;;;;;;;24.93;53.67;101551.69;5051535;28;20035;-73
2023/08/14 02:38:05;;;;;;;6.15;3.10;;;;;;;24.84;53.63;101543.25;5059507;28;20048;-73
2023/08/14 02:40:31;;;;;;;7.60;2.88;;;;;;;25.12;53.00;101549.63;5052472;28;20052;-73
2023/08/14 02:43:02;;;;;;;12.32;4.18;;;;;;;24.86;53.73;101552.03;5051838;28;20028;-73
2023/08/14 02:45:27;;;;;;;6.57;2.88;;;;;;;24.79;53.61;101542.66;5053231;28;20438;-74
2023/08/14 02:47:53;;;;;;;5.13;2.88;;;;;;;24.77;53.28;101539.22;5051578;28;20024;-73
2023/08/14 02:50:21;;;;;;;5.40;3.08;;;;;;;24.43;54.88;101541.16;5052483;28;20029;-73
2023/08/14 02:52:47;;;;;;;4.75;3.00;;;;;;;24.61;54.24;101543.72;5051453;28;20024;-73
2023/08/14 02:55:12;;;;;;;7.78;3.78;;;;;;;24.50;54.27;101539.84;5051347;28;20028;-73
2023/08/14 02:57:37;;;;;;;5.00;2.92;;;;;;;24.41;54.92;101545.72;5065379;28;20053;-73
2023/08/14 03:00:04;;;;;;;4.43;2.80;;;;;;;24.56;54.42;101544.84;5043186;28;20051;-73
2023/08/14 03:02:29;;;;;;;6.70;3.90;;;;;;;24.60;53.69;101544.66;5032319;28;20388;-73
2023/08/14 03:04:55;;;;;;;4.47;2.80;;;;;;;24.70;53.74;101554.75;5052404;28;20020;-74
2023/08/14 03:07:20;;;;;;;5.65;3.05;;;;;;;24.59;53.93;101554.47;5051512;28;20031;-74
2023/08/14 03:09:46;;;;;;;5.38;3.28;;;;;;;24.81;53.31;101551.47;5051369;28;20046;-74
2023/08/14 03:12:11;;;;;;;6.57;3.25;;;;;;;24.79;54.03;101550.69;5052465;28;20025;-71
2023/08/14 03:14:37;;;;;;;5.03;2.83;;;;;;;24.95;52.53;101549.75;5052654;28;20020;-71
2023/08/14 03:17:02;;;;;;;6.45;3.05;;;;;;;24.89;53.00;101551.88;5051626;28;20548;-72
2023/08/14 03:19:27;;;;;;;6.07;3.10;;;;;;;24.75;53.20;101554.47;5050637;28;20074;-72
2023/08/14 03:21:53;;;;;;;6.68;2.83;;;;;;;24.31;53.84;101553.38;5051045;28;20520;-73
2023/08/14 03:24:18;;;;;;;5.00;2.58;;;;;;;24.56;53.97;101542.19;5068377;28;20028;-71
2023/08/14 03:26:44;;;;;;;4.22;3.38;;;;;;;24.58;53.62;101542.09;5060668;28;20029;-71
2023/08/14 03:29:09;;;;;;;5.15;2.80;;;;;;;24.67;53.75;101551.41;5044657;28;20036;-71
2023/08/14 03:31:38;;;;;;;7.07;3.42;;;;;;;24.43;53.97;101550.97;5052322;28;20017;-71
2023/08/14 03:34:03;;;;;;;7.88;3.10;;;;;;;24.49;53.66;101540.78;5051422;28;20020;-71
2023/08/14 03:36:28;;;;;;;4.78;2.90;;;;;;;24.65;53.81;101534.59;5051994;28;20028;-71
2023/08/14 03:38:54;;;;;;;5.25;2.60;;;;;;;24.52;53.67;101547.78;5050673;28;20124;-71
2023/08/14 03:41:19;;;;;;;5.78;2.33;;;;;;;24.38;53.71;101549.41;5052456;28;20022;-71
2023/08/14 03:43:45;;;;;;;5.80;2.72;;;;;;;24.31;53.83;101544.53;5051577;28;20523;-71
2023/08/14 03:46:11;;;;;;;4.70;2.67;;;;;;;24.43;53.68;101554.50;5069220;28;20067;-71
2023/08/14 03:48:37;;;;;;;3.92;2.47;;;;;;;24.67;52.93;101546.06;5051841;28;20027;-71
2023/08/14 03:51:02;;;;;;;5.22;2.53;;;;;;;24.66;53.34;101541.66;5051096;28;20089;-72
2023/08/14 03:53:28;;;;;;;4.03;2.03;;;;;;;24.80;52.38;101549.72;5068573;28;20044;-71
2023/08/14 03:55:53;;;;;;;5.00;2.60;;;;;;;24.37;53.57;101549.50;5069042;28;20511;-71
2023/08/14 03:58:18;;;;;;;3.53;2.38;;;;;;;24.42;53.74;101555.44;5053900;28;20169;-71
2023/08/14 04:00:46;;;;;;;5.20;2.70;;;;;;;24.63;53.31;101549.84;5041096;28;20032;-70
2023/08/14 04:03:12;;;;;;;9.18;2.85;;;;;;;24.70;52.80;101540.53;5056465;28;20060;-73
2023/08/14 04:05:39;;;;;;;6.80;2.45;;;;;;;24.58;52.82;101544.75;5054327;28;20067;-72
2023/08/14 04:08:05;;;;;;;3.15;2.28;;;;;;;24.92;52.37;101548.13;5052776;28;20058;-71
2023/08/14 04:10:31;;;;;;;6.25;2.72;;;;;;;24.58;52.74;101546.53;5042347;28;20393;-71
2023/08/14 04:12:56;;;;;;;7.65;2.65;;;;;;;24.78;52.21;101546.28;5049553;28;20034;-71
2023/08/14 04:15:22;;;;;;;5.10;2.83;;;;;;;24.95;51.40;101544.41;5036206;28;20027;-71
2023/08/14 04:17:47;;;;;;;3.15;2.28;;;;;;;24.89;51.51;101535.84;5047026;28;20082;-71
2023/08/14 04:20:12;;;;;;;3.38;2.10;;;;;;;24.83;51.66;101541.53;5073371;28;20017;-71
2023/08/14 04:22:38;;;;;;;3.33;2.10;;;;;;;24.64;52.14;101539.06;5055457;28;20115;-71
2023/08/14 04:25:04;;;;;;;5.18;2.50;;;;;;;24.43;53.17;101533.13;5055823;28;20063;-72
2023/08/14 04:27:30;;;;;;;4.40;2.42;;;;;;;24.70;52.16;101529.81;5045957;28;20033;-71
2023/08/14 04:29:55;;;;;;;6.72;2.17;;;;;;;24.80;51.70;101547.06;5054920;28;20059;-72
2023/08/14 04:32:21;;;;;;;5.05;2.67;;;;;;;24.50;52.75;101539.84;5055035;28;20555;-72
2023/08/14 04:34:46;;;;;;;5.70;2.80;;;;;;;24.79;52.08;101533.78;5054776;28;20025;-71
2023/08/14 04:37:12;;;;;;;4.55;2.30;;;;;;;24.76;52.06;101529.47;5054737;28;20024;-71
2023/08/14 04:39:37;;;;;;;6.57;2.83;;;;;;;24.77;51.83;101535.69;5054636;28;20111;-71
2023/08/14 04:42:03;;;;;;;3.83;2.55;;;;;;;24.79;51.97;101529.28;5068892;28;20416;-72
2023/08/14 04:44:28;;;;;;;5.13;2.67;;;;;;;24.58;52.67;101530.50;5041255;28;20549;-72
2023/08/14 04:46:53;;;;;;;6.72;2.72;;;;;;;24.72;52.72;101525.28;5053933;28;20071;-72
2023/08/14 04:49:19;;;;;;;6.20;3.13;;;;;;;24.40;53.67;101511.94;5054371;28;20029;-71
2023/08/14 04:51:44;;;;;;;5.45;2.42;;;;;;;24.72;52.86;101512.75;5073174;28;20024;-71
2023/08/14 04:54:10;;;;;;;4.72;2.60;;;;;;;24.86;52.28;101513.75;5071687;28;20052;-71
2023/08/14 04:56:38;;;;;;;5.25;3.38;;;;;;;24.83;52.26;101516.63;5067511;28;20388;-70
2023/08/14 04:59:04;;;;;;;5.13;2.70;;;;;;;24.88;52.33;101512.72;5070024;28;20166;-71
2023/08/14 05:01:29;;;;;;;4.90;2.90;;;;;;;24.72;52.40;101511.91;5070869;28;20116;-71
2023/08/14 05:03:54;;;;;;;7.22;2.85;;;;;;;24.70;52.72;101508.44;5091647;28;20058;-72
2023/08/14 05:06:20;;;;;;;5.05;2.75;;;;;;;24.96;51.65;101508.72;5091988;28;20070;-71
2023/08/14 05:08:45;;;;;;;5.38;2.85;;;;;;;24.50;52.74;101505.09;5091042;28;20452;-71
2023/08/14 05:11:11;;;;;;;8.00;2.83;;;;;;;24.83;52.48;101497.91;5091128;28;20028;-72
2023/08/14 05:13:36;;;;;;;5.85;3.22;;;;;;;25.10;52.06;101495.38;5090781;28;20103;-71
2023/08/14 05:16:01;;;;;;;8.52;2.80;;;;;;;25.24;51.75;101503.41;5089841;28;20498;-71
2023/08/14 05:18:27;;;;;;;5.78;3.17;;;;;;;25.29;51.48;101499.59;5091203;28;20111;-72
2023/08/14 05:20:53;;;;;;;7.20;3.00;;;;;;;25.49;50.95;101503.75;5090573;28;20107;-71
2023/08/14 05:23:19;;;;;;;6.10;3.50;;;;;;;25.47;50.65;101503.84;5091242;28;20016;-71
2023/08/14 05:25:45;;;;;;;10.65;3.45;;;;;;;25.33;51.14;101504.66;5090824;28;20823;-73
2023/08/14 05:28:11;;;;;;;7.25;3.30;;;;;;;25.49;51.01;101509.94;5091207;28;20036;-73
2023/08/14 05:30:41;;;;;;;6.18;3.75;;;;;;;25.12;51.48;101514.84;5089388;28;20027;-71
2023/08/14 05:33:07;;;;;;;5.45;3.53;;;;;;;25.42;51.27;101505.94;5092504;28;20039;-72
2023/08/14 05:35:32;;;;;;;7.53;3.38;;;;;;;25.22;51.66;101510.69;5090322;28;20391;-72
2023/08/14 05:37:59;;;;;;;4.63;3.20;;;;;;;25.30;51.49;101506.66;5090083;28;20020;-71
2023/08/14 05:40:26;;;;;;;6.03;2.83;;;;;;;25.54;51.36;101510.50;5090856;28;20476;-71
2023/08/14 05:43:04;;;;;;;8.05;3.70;;;;;;;25.60;50.82;101508.41;5077274;28;20115;-72
2023/08/14 05:45:35;;;;;;;6.50;3.40;;;;;;;24.95;52.64;101506.97;5081285;28;20510;-71
2023/08/14 05:48:01;;;;;;;6.30;3.47;;;;;;;24.81;53.21;101500.69;5090926;28;20032;-72
2023/08/14 05:50:27;;;;;;;8.00;3.47;;;;;;;24.99;52.72;101512.06;5091908;28;20096;-72
2023/08/14 05:52:56;;;;;;;6.82;3.72;;;;;;;25.14;52.78;101507.59;5088557;28;20032;-71
2023/08/14 05:55:21;;;;;;;7.30;3.65;;;;;;;24.56;54.30;101512.78;5091875;28;20542;-71
2023/08/14 05:57:46;;;;;;;10.07;3.85;;;;;;;25.42;52.41;101505.94;5088803;28;20076;-72
2023/08/14 06:00:13;;;;;;;15.02;4.47;;;;;;;25.48;52.31;101513.56;5089717;28;20034;-72
2023/08/14 06:02:38;;;;;;;6.65;4.10;;;;;;;25.33;53.01;101519.88;5089969;28;20118;-71
2023/08/14 06:05:04;;;;;;;5.60;3.38;;;;;;;25.84;51.87;101519.38;5090629;28;20468;-71
2023/08/14 06:07:29;;;;;;;12.07;3.50;;;;;;;25.89;51.27;101520.78;5091885;28;20027;-72
2023/08/14 06:09:55;;;;;;;7.03;3.38;;;;;;;25.85;52.11;101519.25;5089765;28;20034;-72
2023/08/14 06:12:20;;;;;;;6.53;3.78;;;;;;;25.76;51.94;101519.00;5091370;28;20111;-72
2023/08/14 06:14:46;;;;;;;6.45;3.45;;;;;;;26.07;51.06;101517.91;5091470;28;20030;-71
2023/08/14 06:17:11;;;;;;;5.85;3.40;;;;;;;26.26;51.00;101527.44;5091317;28;20028;-71
2023/08/14 06:19:36;;;;;;;10.13;4.40;;;;;;;26.36;50.36;101523.19;5090214;28;20054;-71
2023/08/14 06:22:03;;;;;;;11.32;3.65;;;;;;;26.46;50.50;101512.72;5087851;28;20024;-72
2023/08/14 06:24:29;;;;;;;9.27;4.32;;;;;;;26.08;52.13;101509.78;5072283;28;20457;-73
2023/08/14 06:26:57;;;;;;;5.07;3.55;;;;;;;26.41;50.86;101527.28;5088848;28;20059;-71
2023/08/14 06:29:23;;;;;;;6.72;3.47;;;;;;;26.62;49.90;101515.25;5089327;28;20024;-72
2023/08/14 06:31:49;;;;;;;5.95;3.42;;;;;;;26.39;51.50;101512.25;5080484;28;20023;-72
2023/08/14 06:34:14;;;;;;;9.18;4.07;;;;;;;25.59;53.36;101522.75;5078140;28;20031;-71
2023/08/14 06:36:40;;;;;;;5.55;3.20;;;;;;;26.68;50.89;101513.00;5090571;28;20035;-71
2023/08/14 06:39:05;;;;;;;7.50;3.78;;;;;;;27.33;48.97;101510.41;5078983;28;20024;-72
2023/08/14 06:41:31;;;;;;;8.15;3.88;;;;;;;27.39;48.71;101520.75;5087941;28;20123;-71
2023/08/14 06:43:56;;;;;;;11.60;3.38;;;;;;;27.01;48.74;101518.88;5089495;28;20073;-71
2023/08/14 06:46:22;;;;;;;5.25;3.42;;;;;;;27.40;48.81;101525.16;5090876;28;20529;-71
2023/08/14 06:48:47;;;;;;;3.58;2.20;;;;;;;26.84;48.39;101528.09;5084281;28;20039;-72
2023/08/14 06:51:13;;;;;;;4.28;2.65;;;;;;;27.24;48.48;101526.19;5077391;28;20111;-71
2023/08/14 06:53:38;;;;;;;5.30;2.88;;;;;;;27.12;48.37;101531.53;5088359;28;20077;-71
2023/08/14 06:56:04;;;;;;;9.00;2.85;;;;;;;26.83;49.20;101537.09;5087574;28;20032;-72
2023/08/14 06:58:29;;;;;;;3.60;2.58;;;;;;;26.68;49.46;101538.94;5079577;28;20048;-71
2023/08/14 07:00:56;;;;;;;4.45;2.15;;;;;;;26.86;48.66;101527.00;5088366;28;20095;-71
2023/08/14 07:03:21;;;;;;;2.67;2.22;;;;;;;27.09;48.42;101519.19;5090840;28;20505;-72
2023/08/14 07:05:47;;;;;;;4.28;2.00;;;;;;;27.32;47.50;101531.00;5089079;28;20472;-71
2023/08/14 07:08:12;;;;;;;3.90;1.85;;;;;;;27.61;47.58;101532.63;5088317;28;20028;-72
2023/08/14 07:10:38;;;;;;;2.83;1.92;;;;;;;28.91;45.42;101524.84;5085474;28;20051;-72
2023/08/14 07:13:04;;;;;;;2.65;1.55;;;;;;;28.12;44.52;101535.22;5082763;28;20480;-72
2023/08/14 07:15:30;;;;;;;2.78;1.55;;;;;;;29.17;42.17;101537.22;5085192;28;20044;-72
2023/08/14 07:17:55;;;;;;;3.33;1.40;;;;;;;29.03;42.62;101538.31;5080305;28;20032;-72
2023/08/14 07:20:21;;;;;;;1.20;1.10;;;;;;;28.88;42.92;101541.22;5090146;28;20434;-72
2023/08/14 07:22:46;;;;;;;4.78;1.45;;;;;;;29.27;42.70;101546.34;5087940;28;20058;-71
2023/08/14 07:25:13;;;;;;;3.13;1.13;;;;;;;29.84;41.75;101549.91;5088770;28;20430;-73
2023/08/14 07:27:38;;;;;;;1.50;1.20;;;;;;;29.28;42.65;101554.31;5084780;28;20047;-71
2023/08/14 07:30:07;;;;;;;2.78;1.25;;;;;;;29.95;41.53;101551.75;5083397;28;20480;-72
2023/08/14 07:32:33;;;;;;;1.10;1.00;;;;;;;30.68;39.43;101543.09;5088584;28;20129;-72
2023/08/14 07:34:58;;;;;;;2.85;1.17;;;;;;;31.41;38.93;101535.09;5086710;28;20024;-72
2023/08/14 07:37:24;;;;;;;5.15;1.40;;;;;;;32.80;37.42;101544.22;5089880;28;20027;-72
2023/08/14 07:39:49;;;;;;;0.75;0.73;;;;;;;33.86;35.85;101535.09;5088066;28;20043;-72
2023/08/14 07:42:14;;;;;;;4.10;1.30;;;;;;;34.98;33.91;101542.78;5088180;28;20027;-71
2023/08/14 07:44:40;;;;;;;2.85;1.00;;;;;;;34.89;31.60;101538.31;5087303;28;20484;-72
2023/08/14 07:47:05;;;;;;;1.50;0.57;;;;;;;35.80;29.70;101531.50;5088471;28;20393;-72
2023/08/14 07:49:37;;;;;;;0.65;0.60;;;;;;;34.99;29.31;101522.78;5089637;28;20035;-71
2023/08/14 07:52:03;;;;;;;0.52;0.52;;;;;;;35.54;30.16;101515.25;5087430;28;20060;-73
2023/08/14 07:54:28;;;;;;;1.13;0.75;;;;;;;35.83;30.00;101508.59;5089485;28;20032;-73
2023/08/14 07:56:53;;;;;;;0.57;0.57;;;;;;;37.44;28.28;101516.25;5088179;28;20447;-74
2023/08/14 07:59:19;;;;;;;1.90;0.60;;;;;;;37.34;27.14;101519.19;5087170;28;20051;-71
2023/08/14 08:01:45;;;;;;;1.27;0.70;;;;;;;37.65;26.34;101526.53;5087313;28;20024;-71
2023/08/14 08:04:10;;;;;;;1.80;0.52;;;;;;;38.13;25.81;101506.50;5087800;28;20062;-71
2023/08/14 08:06:36;;;;;;;0.90;0.47;;;;;;;37.96;24.59;101495.72;5086457;28;20085;-70
2023/08/14 08:09:02;;;;;;;3.97;0.60;;;;;;;37.10;26.34;101503.72;5074788;28;20479;-71
2023/08/14 08:11:28;;;;;;;1.05;0.60;;;;;;;37.14;25.61;101501.50;5088481;28;20032;-71
2023/08/14 08:13:54;;;;;;;1.02;0.57;;;;;;;37.94;25.96;101494.19;5088200;28;20031;-71
2023/08/14 08:16:19;;;;;;;2.22;0.75;;;;;;;38.02;25.30;101486.78;5087448;28;20500;-72
2023/08/14 08:18:44;;;;;;;3.67;1.00;;;;;;;38.95;23.69;101494.91;5088736;28;20109;-71
2023/08/14 08:21:10;;;;;;;0.90;0.57;;;;;;;38.97;25.93;101502.91;5087699;28;20039;-71
2023/08/14 08:23:35;;;;;;;1.27;0.95;;;;;;;39.91;23.28;101499.50;5087575;28;20093;-71
2023/08/14 08:26:01;;;;;;;3.70;1.00;;;;;;;39.25;23.31;101500.38;5088125;28;20153;-72
2023/08/14 08:28:26;;;;;;;1.25;0.80;;;;;;;39.47;23.46;101497.72;5088463;28;20032;-71
2023/08/14 08:30:52;;;;;;;2.03;0.80;;;;;;;39.51;24.48;101488.91;5084194;28;20025;-72
2023/08/14 08:33:17;;;;;;;0.93;0.88;;;;;;;40.19;23.61;101483.19;5087662;28;20074;-71
2023/08/14 08:35:42;;;;;;;1.80;0.95;;;;;;;40.85;22.70;101494.91;5087972;28;20020;-72
2023/08/14 08:38:08;;;;;;;2.22;1.00;;;;;;;39.63;23.58;101497.50;5087624;28;20063;-71
2023/08/14 08:40:33;;;;;;;1.30;1.08;;;;;;;38.72;24.54;101494.09;5087960;28;20024;-71
2023/08/14 08:43:00;;;;;;;2.40;1.15;;;;;;;40.50;24.31;101501.16;5085931;28;20429;-71
2023/08/14 08:45:31;;;;;;;1.95;0.90;;;;;;;39.39;24.32;101512.31;5072914;28;20028;-72
2023/08/14 08:48:00;;;;;;;1.88;1.05;;;;;;;37.54;26.39;101517.88;5087470;28;20028;-72
2023/08/14 08:50:27;;;;;;;1.17;0.90;;;;;;;38.66;26.02;101507.44;5091391;28;20027;-72
2023/08/14 08:52:54;;;;;;;3.58;1.05;;;;;;;38.76;24.69;101512.69;5092652;28;20131;-72
2023/08/14 08:55:20;;;;;;;1.65;1.10;;;;;;;38.59;26.33;101517.41;5088920;28;20032;-72
2023/08/14 08:57:46;;;;;;;4.43;1.25;;;;;;;39.56;24.85;101512.97;5082227;28;20135;-72
2023/08/14 09:00:12;;;;;;;2.00;1.10;;;;;;;39.84;24.86;101512.25;5072382;28;20548;-72
2023/08/14 09:02:38;;;;;;;3.10;1.35;;;;;;;40.52;24.37;101511.94;5083108;28;20020;-72
2023/08/14 09:05:04;;;;;;;5.53;1.20;;;;;;;40.29;24.63;101520.34;5091732;28;20502;-72
2023/08/14 09:07:29;;;;;;;2.33;1.27;;;;;;;39.74;24.46;101514.47;5090342;28;20024;-72
2023/08/14 09:09:55;;;;;;;3.60;1.20;;;;;;;39.12;25.27;101509.22;5089801;28;20494;-72
2023/08/14 09:12:20;;;;;;;1.13;0.77;;;;;;;39.72;24.38;101495.50;5089769;28;20028;-72
2023/08/14 09:15:01;;;;;;;5.20;1.65;;;;;;;41.42;23.41;101494.81;5090910;28;20031;-73
2023/08/14 09:17:26;;;;;;;2.85;1.27;;;;;;;39.18;25.35;101488.50;5090951;28;20124;-72
2023/08/14 09:19:51;;;;;;;1.75;0.88;;;;;;;39.58;25.33;101483.53;5091197;28;20149;-72
2023/08/14 09:22:17;;;;;;;4.93;1.33;;;;;;;38.50;25.50;101492.06;5089762;28;20031;-72
2023/08/14 09:24:43;;;;;;;2.55;1.10;;;;;;;39.68;25.63;101485.97;5092409;28;20024;-72
2023/08/14 09:27:08;;;;;;;4.38;1.08;;;;;;;39.13;25.44;101485.44;5085649;28;20032;-73
2023/08/14 09:29:37;;;;;;;4.63;1.40;;;;;;;39.36;25.28;101485.38;5082000;28;20035;-72
2023/08/14 09:32:03;;;;;;;1.52;0.90;;;;;;;39.96;24.95;101486.09;5087766;28;20021;-72
2023/08/14 09:34:30;;;;;;;2.97;1.02;;;;;;;38.29;25.73;101479.13;5085940;28;20036;-72
2023/08/14 09:36:57;;;;;;;3.10;1.50;;;;;;;37.75;26.92;101465.47;5073950;28;20293;-72
2023/08/14 09:39:23;;;;;;;2.20;1.30;;;;;;;37.26;27.75;101474.69;5090126;28;20032;-72
2023/08/14 09:41:49;;;;;;;2.40;1.30;;;;;;;37.69;27.75;101470.59;5090484;28;20028;-72
2023/08/14 09:44:18;;;;;;;2.42;1.00;;;;;;;37.58;27.32;101465.56;5091004;28;20484;-72
2023/08/14 09:46:44;;;;;;;3.50;1.35;;;;;;;35.81;29.14;101472.53;5090703;28;20036;-72
2023/08/14 09:49:09;;;;;;;0.60;0.60;;;;;;;36.06;28.41;101464.47;5089820;28;20035;-72
2023/08/14 09:51:35;;;;;;;5.32;1.10;;;;;;;35.13;30.27;101466.13;5091128;28;20024;-72
2023/08/14 09:54:02;;;;;;;2.92;1.10;;;;;;;35.93;30.45;101454.91;5090460;28;20046;-73
2023/08/14 09:56:28;;;;;;;1.23;1.10;;;;;;;36.32;28.82;101450.72;5091089;28;20054;-72
2023/08/14 09:58:54;;;;;;;2.35;0.95;;;;;;;36.24;28.86;101451.53;5087517;28;20559;-72
2023/08/14 10:01:22;;;;;;;4.18;1.13;;;;;;;35.91;29.32;101445.22;5090817;28;20027;-72
2023/08/14 10:03:52;;;;;;;2.88;1.10;;;;;;;35.66;28.51;101447.88;5078517;28;20012;-73
2023/08/14 10:06:21;;;;;;;1.90;0.63;;;;;;;35.40;28.32;101445.25;5084512;28;20047;-73
2023/08/14 10:08:50;;;;;;;2.72;0.90;;;;;;;35.52;28.21;101440.34;5083574;28;20032;-72
2023/08/14 10:11:17;;;;;;;6.47;0.88;;;;;;;33.98;29.58;101444.41;5088601;28;20039;-72
2023/08/14 10:13:46;;;;;;;2.17;0.80;;;;;;;34.01;29.63;101440.53;5089540;28;20062;-72
2023/08/14 10:16:22;;;;;;;2.60;1.42;;;;;;;33.62;31.43;101442.47;5079760;28;20431;-75
2023/08/14 10:18:49;;;;;;;3.78;1.25;;;;;;;33.53;31.97;101440.66;5071047;28;20034;-75
2023/08/14 10:21:15;;;;;;;6.57;1.77;;;;;;;34.48;31.45;101442.97;5078394;28;20035;-74
2023/08/14 10:23:43;;;;;;;6.13;1.17;;;;;;;34.61;30.76;101434.41;5078470;28;20399;-75
2023/08/14 10:26:10;;;;;;;3.75;1.17;;;;;;;34.21;30.22;101436.66;5089839;28;20035;-75
2023/08/14 10:28:36;;;;;;;0.88;0.65;;;;;;;32.93;31.01;101428.41;5089813;28;20024;-74
2023/08/14 10:31:03;;;;;;;2.05;0.88;;;;;;;33.83;30.34;101422.41;5090270;28;20093;-75
2023/08/14 10:33:30;;;;;;;2.78;0.88;;;;;;;33.06;30.00;101428.03;5089358;28;20032;-75
2023/08/14 10:35:57;;;;;;;1.60;0.60;;;;;;;34.16;29.77;101428.13;5089598;28;20429;-75
2023/08/14 10:38:39;;;;;;;3.72;0.80;;;;;;;33.91;29.27;101437.88;5084611;28;20423;-75
2023/08/14 10:41:07;;;;;;;2.38;0.88;;;;;;;34.71;29.31;101431.63;5086915;28;20062;-75
2023/08/14 10:43:32;;;;;;;2.08;1.08;;;;;;;34.66;29.49;101432.94;5086793;28;20059;-75
2023/08/14 10:45:58;;;;;;;4.22;0.80;;;;;;;35.11;27.84;101420.13;5076490;28;20491;-72
2023/08/14 10:48:23;;;;;;;2.50;0.90;;;;;;;35.92;27.99;101423.31;5090173;28;20024;-73
2023/08/14 10:50:58;;;;;;;4.45;0.80;;;;;;;35.58;28.50;101424.22;5087941;28;20417;-72
2023/08/14 10:53:23;;;;;;;4.22;1.27;;;;;;;34.06;29.36;101427.34;5082497;28;20030;-73
2023/08/14 10:55:49;;;;;;;2.53;0.60;;;;;;;33.09;30.57;101425.03;5089215;28;20042;-72
2023/08/14 10:58:33;;;;;;;2.25;0.90;;;;;;;34.61;30.33;101426.25;5079537;28;20055;-75
2023/08/14 11:01:00;;;;;;;3.80;1.10;;;;;;;33.23;30.50;101423.69;5085581;28;20034;-74
2023/08/14 11:03:25;;;;;;;3.13;1.08;;;;;;;34.95;30.71;101418.22;5069862;28;20028;-75
2023/08/14 11:05:51;;;;;;;3.38;0.73;;;;;;;33.36;31.16;101428.81;5069717;28;20123;-75
2023/08/14 11:08:17;;;;;;;3.35;1.02;;;;;;;33.22;31.10;101407.59;5091239;28;20028;-75
2023/08/14 11:10:44;;;;;;;2.45;0.90;;;;;;;33.99;30.09;101410.84;5090702;28;20016;-75
2023/08/14 11:13:10;;;;;;;2.63;1.25;;;;;;;34.02;29.32;101409.69;5089044;28;20484;-74
2023/08/14 11:15:38;;;;;;;1.80;0.80;;;;;;;34.21;30.23;101414.06;5088542;28;20483;-72
2023/08/14 11:18:10;;;;;;;0.80;0.57;;;;;;;34.32;29.68;101413.84;5089620;28;20047;-73
2023/08/14 11:20:42;;;;;;;2.70;1.33;;;;;;;34.18;29.36;101404.38;5090472;28;20077;-72